createdAt,value
2019-05-14T00:00:52.281Z,102362.44
2019-05-14T00:03:21.748Z,102362.77
2019-05-14T00:05:48.413Z,102367.30
2019-05-14T00:08:17.532Z,102369.20
2019-05-14T00:10:44.728Z,102365.36
2019-05-14T00:13:12.142Z,102364.05
2019-05-14T00:15:41.320Z,102373.09
2019-05-14T00:18:08.336Z,102368.13
2019-05-14T00:20:35.521Z,102369.16
2019-05-14T00:23:02.723Z,102363.90
2019-05-14T00:25:31.283Z,102368.16
2019-05-14T00:27:58.608Z,102360.44
2019-05-14T00:30:25.839Z,102357.37
2019-05-14T00:32:53.129Z,102358.82
2019-05-14T00:35:21.577Z,102362.67
2019-05-14T00:37:48.710Z,102363.52
2019-05-14T00:40:15.916Z,102353.22
2019-05-14T00:42:43.006Z,102354.38
2019-05-14T00:45:11.568Z,102353.16
2019-05-14T00:47:38.764Z,102347.86
2019-05-14T00:50:06.217Z,102346.52
2019-05-14T00:52:33.384Z,102345.20
2019-05-14T00:55:01.136Z,102345.44
2019-05-14T00:57:28.480Z,102344.39
2019-05-14T00:59:55.670Z,102336.36
2019-05-14T01:02:22.890Z,102337.69
2019-05-14T01:04:51.634Z,102334.10
2019-05-14T01:07:20.983Z,102326.41
2019-05-14T01:09:48.089Z,102329.64
2019-05-14T01:12:15.272Z,102326.28
2019-05-14T01:14:42.726Z,102320.64
2019-05-14T01:17:11.310Z,102325.54
2019-05-14T01:19:38.519Z,102326.59
2019-05-14T01:22:05.683Z,102319.67
2019-05-14T01:24:32.878Z,102325.44
2019-05-14T01:27:01.612Z,102319.06
2019-05-14T01:29:31.639Z,102315.18
2019-05-14T01:31:58.442Z,102323.66
2019-05-14T01:34:25.532Z,102329.26
2019-05-14T01:36:53.026Z,102324.18
2019-05-14T01:39:21.294Z,102334.10
2019-05-14T01:41:48.559Z,102331.13
2019-05-14T01:44:15.728Z,102326.10
2019-05-14T01:46:43.304Z,102328.50
2019-05-14T01:49:12.060Z,102328.25
2019-05-14T01:51:42.112Z,102330.52
2019-05-14T01:54:08.620Z,102321.04
2019-05-14T01:56:35.820Z,102327.03
2019-05-14T01:59:03.513Z,102318.77
2019-05-14T02:01:31.574Z,102320.25
2019-05-14T02:03:58.881Z,102322.13
2019-05-14T02:06:26.061Z,102324.02
2019-05-14T02:08:53.260Z,102330.17
2019-05-14T02:11:21.391Z,102318.48
2019-05-14T02:13:48.657Z,102317.89
2019-05-14T02:16:15.893Z,102319.29
2019-05-14T02:18:43.279Z,102321.17
2019-05-14T02:21:11.846Z,102311.64
2019-05-14T02:23:39.101Z,102315.57
2019-05-14T02:26:06.255Z,102310.55
2019-05-14T02:28:33.414Z,102318.86
2019-05-14T02:31:03.552Z,102320.83
2019-05-14T02:33:30.822Z,102322.47
2019-05-14T02:35:59.969Z,102317.84
2019-05-14T02:38:29.898Z,102315.45
2019-05-14T02:40:59.647Z,102305.61
2019-05-14T02:43:29.043Z,102302.86
2019-05-14T02:46:09.511Z,102306.27
2019-05-14T02:48:24.496Z,102298.10
2019-05-14T02:50:52.155Z,102298.10
2019-05-14T02:53:20.081Z,102304.95
2019-05-14T02:55:49.785Z,102290.70
2019-05-14T02:58:20.552Z,102296.91
2019-05-14T03:00:45.808Z,102290.00
2019-05-14T03:03:12.973Z,102289.20
2019-05-14T03:05:40.416Z,102285.71
2019-05-14T03:08:09.038Z,102293.69
2019-05-14T03:10:36.513Z,102291.87
2019-05-14T03:13:04.862Z,102287.49
2019-05-14T03:15:32.054Z,102291.12
2019-05-14T03:17:59.896Z,102288.27
2019-05-14T03:20:28.827Z,102287.87
2019-05-14T03:23:07.551Z,102278.93
2019-05-14T03:25:25.506Z,102285.13
2019-05-14T03:27:52.681Z,102282.88
2019-05-14T03:30:22.831Z,102284.34
2019-05-14T03:32:52.936Z,102282.67
2019-05-14T03:35:23.334Z,102278.55
2019-05-14T03:37:49.699Z,102284.03
2019-05-14T03:40:19.376Z,102282.92
2019-05-14T03:42:48.813Z,102276.09
2019-05-14T03:45:14.820Z,102266.58
2019-05-14T03:47:41.876Z,102270.11
2019-05-14T03:50:10.573Z,102274.98
2019-05-14T03:52:39.959Z,102266.30
2019-05-14T03:55:09.499Z,102260.78
2019-05-14T03:57:35.968Z,102260.38
2019-05-14T04:00:03.595Z,102261.36
2019-05-14T04:02:31.051Z,102263.75
2019-05-14T04:04:59.945Z,102258.91
2019-05-14T04:07:30.336Z,102259.61
2019-05-14T04:09:59.567Z,102261.29
2019-05-14T04:12:29.348Z,102264.13
2019-05-14T04:14:59.903Z,102256.44
2019-05-14T04:17:41.148Z,102262.73
2019-05-14T04:20:04.151Z,102263.09
2019-05-14T04:22:32.375Z,102267.77
2019-05-14T04:25:01.668Z,102267.03
2019-05-14T04:27:30.027Z,102266.43
2019-05-14T04:29:59.857Z,102270.93
2019-05-14T04:32:29.542Z,102275.38
2019-05-14T04:34:59.687Z,102272.42
2019-05-14T04:37:28.893Z,102279.45
2019-05-14T04:39:55.460Z,102277.48
2019-05-14T04:42:22.984Z,102275.77
2019-05-14T04:44:50.808Z,102280.10
2019-05-14T04:47:31.385Z,102275.08
2019-05-14T04:49:50.218Z,102266.97
2019-05-14T04:52:20.235Z,102259.56
2019-05-14T04:54:45.696Z,102259.83
2019-05-14T04:57:12.874Z,102255.81
2019-05-14T04:59:40.367Z,102254.75
2019-05-14T05:02:09.524Z,102256.52
2019-05-14T05:04:40.843Z,102262.11
2019-05-14T05:07:05.711Z,102266.96
2019-05-14T05:09:32.891Z,102273.39
2019-05-14T05:12:00.362Z,102267.67
2019-05-14T05:14:29.620Z,102256.02
2019-05-14T05:16:59.445Z,102267.47
2019-05-14T05:19:25.526Z,102259.59
2019-05-14T05:21:52.722Z,102259.08
2019-05-14T05:24:19.909Z,102259.69
2019-05-14T05:26:48.505Z,102261.83
2019-05-14T05:29:18.435Z,102257.83
2019-05-14T05:31:45.237Z,102245.77
2019-05-14T05:34:12.500Z,102253.70
2019-05-14T05:36:39.697Z,102251.29
2019-05-14T05:39:08.573Z,102261.61
2019-05-14T05:41:38.316Z,102271.74
2019-05-14T05:44:05.371Z,102269.05
2019-05-14T05:46:32.824Z,102260.42
2019-05-14T05:49:00.016Z,102267.97
2019-05-14T05:51:28.915Z,102266.14
2019-05-14T05:53:58.653Z,102272.17
2019-05-14T05:56:25.372Z,102259.26
2019-05-14T05:58:52.563Z,102253.19
2019-05-14T06:01:19.924Z,102252.67
2019-05-14T06:03:49.235Z,102246.78
2019-05-14T06:06:16.345Z,102242.83
2019-05-14T06:08:43.546Z,102241.01
2019-05-14T06:11:10.772Z,102238.62
2019-05-14T06:13:39.105Z,102237.45
2019-05-14T06:16:09.210Z,102234.48
2019-05-14T06:18:35.626Z,102230.02
2019-05-14T06:21:02.708Z,102228.95
2019-05-14T06:23:29.919Z,102226.59
2019-05-14T06:25:59.870Z,102227.77
2019-05-14T06:28:30.169Z,102235.33
2019-05-14T06:30:55.363Z,102233.31
2019-05-14T06:33:22.475Z,102232.48
2019-05-14T06:35:49.558Z,102232.66
2019-05-14T06:38:18.507Z,102231.33
2019-05-14T06:40:48.783Z,102230.48
2019-05-14T06:43:14.980Z,102240.63
2019-05-14T06:45:42.180Z,102238.72
2019-05-14T06:48:09.744Z,102243.81
2019-05-14T06:50:39.234Z,102239.84
2019-05-14T06:53:08.435Z,102237.60
2019-05-14T06:55:35.320Z,102243.28
2019-05-14T06:58:02.539Z,102241.13
2019-05-14T07:00:29.744Z,102241.16
2019-05-14T07:02:58.300Z,102249.94
2019-05-14T07:05:28.014Z,102239.50
2019-05-14T07:07:54.779Z,102244.55
2019-05-14T07:10:22.016Z,102240.89
2019-05-14T07:12:49.883Z,102241.25
2019-05-14T07:15:18.259Z,102233.00
2019-05-14T07:17:45.410Z,102237.89
2019-05-14T07:20:12.728Z,102236.70
2019-05-14T07:22:40.017Z,102227.36
2019-05-14T07:25:09.924Z,102228.87
2019-05-14T07:27:38.985Z,102229.06
2019-05-14T07:30:08.805Z,102219.63
2019-05-14T07:32:35.668Z,102216.61
2019-05-14T07:35:03.726Z,102216.61
2019-05-14T07:37:30.919Z,102220.92
2019-05-14T07:39:58.445Z,102226.33
2019-05-14T07:42:25.921Z,102219.63
2019-05-14T07:44:53.133Z,102212.46
2019-05-14T07:47:20.371Z,102211.20
2019-05-14T07:49:48.983Z,102217.81
2019-05-14T07:52:16.325Z,102210.81
2019-05-14T07:54:43.566Z,102201.22
2019-05-14T07:57:10.805Z,102202.02
2019-05-14T07:59:38.328Z,102201.52
2019-05-14T08:02:05.661Z,102199.23
2019-05-14T08:04:32.827Z,102199.30
2019-05-14T08:07:00.037Z,102211.05
2019-05-14T08:09:28.235Z,102197.19
2019-05-14T08:11:56.060Z,102196.42
2019-05-14T08:14:24.825Z,102183.73
2019-05-14T08:16:52.293Z,102183.72
2019-05-14T08:19:26.239Z,102179.22
2019-05-14T08:21:48.850Z,102181.20
2019-05-14T08:24:21.763Z,102187.19
2019-05-14T08:26:45.159Z,102176.02
2019-05-14T08:29:12.327Z,102165.42
2019-05-14T08:31:39.709Z,102167.34
2019-05-14T08:34:09.221Z,102166.55
2019-05-14T08:36:37.984Z,102162.58
2019-05-14T08:39:06.150Z,102155.09
2019-05-14T08:41:33.465Z,102155.09
2019-05-14T08:44:00.653Z,102147.73
2019-05-14T08:46:28.424Z,102152.41
2019-05-14T08:48:58.379Z,102149.83
2019-05-14T08:51:25.225Z,102144.88
2019-05-14T08:57:50.243Z,102133.22
2019-05-14T09:00:18.358Z,102137.25
2019-05-14T09:02:45.650Z,102128.23
2019-05-14T09:05:12.988Z,102137.89
2019-05-14T09:07:40.223Z,102117.94
2019-05-14T09:10:08.674Z,102123.00
2019-05-14T09:12:38.609Z,102120.08
2019-05-14T09:15:05.732Z,102118.70
2019-05-14T09:17:33.212Z,102121.36
2019-05-14T09:20:06.455Z,102111.95
2019-05-14T09:22:29.471Z,102124.61
2019-05-14T09:24:59.892Z,102119.20
2019-05-14T09:27:25.628Z,102109.99
2019-05-14T09:29:52.811Z,102115.44
2019-05-14T09:32:20.018Z,102108.48
2019-05-14T09:34:48.699Z,102102.76
2019-05-14T09:37:19.041Z,102102.94
2019-05-14T09:39:45.075Z,102133.78
2019-05-14T09:42:12.771Z,102116.14
2019-05-14T09:44:40.254Z,102113.97
2019-05-14T09:47:08.569Z,102125.13
2019-05-14T09:49:38.609Z,102140.30
2019-05-14T09:52:05.430Z,102113.61
2019-05-14T09:54:32.900Z,102112.52
2019-05-14T09:57:00.172Z,102104.60
2019-05-14T09:59:28.063Z,102099.31
2019-05-14T10:01:55.357Z,102102.11
2019-05-14T10:04:22.571Z,102111.92
2019-05-14T10:06:49.742Z,102103.73
2019-05-14T10:09:17.225Z,102091.81
2019-05-14T10:11:44.592Z,102101.52
2019-05-14T10:14:11.852Z,102105.88
2019-05-14T10:16:39.306Z,102100.65
2019-05-14T10:19:06.521Z,102094.55
2019-05-14T10:21:33.805Z,102100.03
2019-05-14T10:24:01.341Z,102099.17
2019-05-14T10:26:29.070Z,102096.95
2019-05-14T10:28:56.259Z,102097.82
2019-05-14T10:31:23.453Z,102094.72
2019-05-14T10:33:51.011Z,102110.75
2019-05-14T10:36:19.065Z,102082.24
2019-05-14T10:38:46.694Z,102088.92
2019-05-14T10:41:13.905Z,102107.13
2019-05-14T10:43:41.138Z,102096.31
2019-05-14T10:46:09.223Z,102084.13
2019-05-14T10:48:39.335Z,102085.09
2019-05-14T10:51:05.473Z,102096.60
2019-05-14T10:53:32.599Z,102086.55
2019-05-14T10:56:00.074Z,102064.34
2019-05-14T10:58:29.035Z,102084.13
2019-05-14T11:00:58.658Z,102124.31
2019-05-14T11:03:25.461Z,102070.67
2019-05-14T11:05:52.764Z,102072.30
2019-05-14T11:08:19.968Z,102079.80
2019-05-14T11:10:49.828Z,102070.67
2019-05-14T11:13:18.985Z,102069.94
2019-05-14T11:15:48.435Z,102058.89
2019-05-14T11:18:15.057Z,102058.19
2019-05-14T11:20:42.531Z,102048.45
2019-05-14T11:23:09.797Z,102048.66
2019-05-14T11:25:38.344Z,102051.68
2019-05-14T11:28:05.733Z,102031.97
2019-05-14T11:30:32.920Z,102042.24
2019-05-14T11:33:00.115Z,102045.28
2019-05-14T11:35:28.797Z,102037.70
2019-05-14T11:37:58.678Z,102032.61
2019-05-14T11:40:25.410Z,102034.64
2019-05-14T11:42:52.606Z,102039.38
2019-05-14T11:45:19.888Z,102028.55
2019-05-14T11:47:48.860Z,102012.91
2019-05-14T11:50:19.271Z,102011.73
2019-05-14T11:52:48.430Z,102010.27
2019-05-14T11:55:18.486Z,102005.20
2019-05-14T11:57:44.960Z,102003.94
2019-05-14T12:00:12.717Z,102001.33
2019-05-14T12:02:39.930Z,102005.63
2019-05-14T12:05:08.805Z,102000.96
2019-05-14T12:07:38.654Z,101997.71
2019-05-14T12:10:08.838Z,102003.83
2019-05-14T12:12:35.531Z,101985.09
2019-05-14T12:15:03.482Z,101997.38
2019-05-14T12:17:30.703Z,101982.34
2019-05-14T12:19:59.423Z,101988.55
2019-05-14T12:22:28.605Z,101983.51
2019-05-14T12:24:55.871Z,101969.19
2019-05-14T12:27:22.976Z,101969.40
2019-05-14T12:29:50.287Z,101963.83
2019-05-14T12:32:18.905Z,101969.44
2019-05-14T12:34:48.789Z,101964.58
2019-05-14T12:37:15.346Z,101974.48
2019-05-14T12:39:42.598Z,101959.60
2019-05-14T12:42:10.983Z,101957.92
2019-05-14T12:44:40.905Z,101957.49
2019-05-14T12:47:09.456Z,101952.78
2019-05-14T12:49:38.688Z,101948.20
2019-05-14T12:52:19.162Z,101943.10
2019-05-14T12:54:35.187Z,101950.25
2019-05-14T12:57:02.337Z,101952.89
2019-05-14T12:59:29.780Z,101944.59
2019-05-14T13:01:58.715Z,101935.89
2019-05-14T13:04:28.478Z,101946.23
2019-05-14T13:06:56.039Z,101940.27
2019-05-14T13:09:23.254Z,101928.13
2019-05-14T13:11:50.417Z,101930.33
2019-05-14T13:14:17.579Z,101935.39
2019-05-14T13:16:44.785Z,101908.70
2019-05-14T13:19:12.137Z,101911.36
2019-05-14T13:21:39.333Z,101906.97
2019-05-14T13:24:08.775Z,101918.44
2019-05-14T13:26:35.635Z,101912.84
2019-05-14T13:29:07.307Z,101906.25
2019-05-14T13:31:31.977Z,101892.00
2019-05-14T13:33:59.692Z,101892.53
2019-05-14T13:36:28.775Z,101887.69
2019-05-14T13:38:55.972Z,101899.41
2019-05-14T13:41:23.148Z,101895.43
2019-05-14T13:43:50.861Z,101911.64
2019-05-14T13:46:19.005Z,101903.38
2019-05-14T13:48:49.576Z,101897.24
2019-05-14T13:51:15.390Z,101890.45
2019-05-14T13:53:42.626Z,101882.75
2019-05-14T13:56:10.051Z,101879.08
2019-05-14T13:58:37.427Z,101873.33
2019-05-14T14:01:04.548Z,101868.34
2019-05-14T14:03:31.704Z,101873.05
2019-05-14T14:05:59.546Z,101890.29
2019-05-14T14:08:29.204Z,101884.92
2019-05-14T14:11:01.971Z,101880.36
2019-05-14T14:13:25.237Z,101862.86
2019-05-14T14:15:52.705Z,101857.63
2019-05-14T14:18:21.040Z,101872.11
2019-05-14T14:20:49.069Z,101867.08
2019-05-14T14:23:23.144Z,101860.05
2019-05-14T14:25:53.531Z,101858.51
2019-05-14T14:28:14.873Z,101862.31
2019-05-14T14:30:42.153Z,101857.78
2019-05-14T14:33:09.332Z,101851.09
2019-05-14T14:35:38.678Z,101843.94
2019-05-14T14:38:08.500Z,101832.88
2019-05-14T14:40:34.977Z,101850.18
2019-05-14T14:43:02.062Z,101840.68
2019-05-14T14:45:29.562Z,101845.45
2019-05-14T14:47:56.994Z,101834.41
2019-05-14T14:50:24.174Z,101844.58
2019-05-14T14:52:51.881Z,101834.61
2019-05-14T14:55:19.617Z,101835.70
2019-05-14T14:57:53.680Z,101843.04
2019-05-14T15:00:19.176Z,101829.86
2019-05-14T15:02:45.274Z,101824.23
2019-05-14T15:05:14.528Z,101824.11
2019-05-14T15:07:42.007Z,101820.91
2019-05-14T15:10:09.449Z,101813.98
2019-05-14T15:12:40.087Z,101805.12
2019-05-14T15:15:06.029Z,101822.08
2019-05-14T15:17:33.495Z,101809.60
2019-05-14T15:20:00.719Z,101815.95
2019-05-14T15:22:30.854Z,101816.25
2019-05-14T15:24:58.558Z,101809.44
2019-05-14T15:27:28.137Z,101803.55
2019-05-14T15:29:55.022Z,101805.59
2019-05-14T15:32:22.197Z,101796.00
2019-05-14T15:34:50.656Z,101803.85
2019-05-14T15:37:19.083Z,101790.11
2019-05-14T15:39:48.925Z,101770.38
2019-05-14T15:42:15.851Z,101786.05
2019-05-14T15:44:51.959Z,101787.75
2019-05-14T15:47:12.234Z,101806.13
2019-05-14T15:49:39.427Z,101820.48
2019-05-14T15:52:08.410Z,101797.40
2019-05-14T15:54:45.598Z,101802.30
2019-05-14T15:57:04.850Z,101788.88
2019-05-14T15:59:32.158Z,101782.85
2019-05-14T16:01:59.729Z,101784.49
2019-05-14T16:04:28.646Z,101779.52
2019-05-14T16:06:58.438Z,101779.34
2019-05-14T16:09:25.176Z,101765.11
2019-05-14T16:11:52.392Z,101771.22
2019-05-14T16:14:19.625Z,101770.03
2019-05-14T16:16:48.723Z,101764.25
2019-05-14T16:19:18.874Z,101768.61
2019-05-14T16:21:45.264Z,101773.27
2019-05-14T16:24:12.492Z,101762.09
2019-05-14T16:26:39.731Z,101752.08
2019-05-14T16:29:08.977Z,101760.64
2019-05-14T16:31:41.999Z,101757.84
2019-05-14T16:34:05.113Z,101763.88
2019-05-14T16:36:32.358Z,101765.92
2019-05-14T16:38:59.575Z,101771.93
2019-05-14T16:41:29.095Z,101756.80
2019-05-14T16:43:58.684Z,101753.53
2019-05-14T16:46:25.550Z,101747.28
2019-05-14T16:48:53.078Z,101755.76
2019-05-14T16:51:20.362Z,101756.64
2019-05-14T16:53:48.837Z,101747.83
2019-05-14T16:56:18.451Z,101755.44
2019-05-14T16:58:45.510Z,101768.36
2019-05-14T17:01:12.817Z,101764.22
2019-05-14T17:03:40.211Z,101760.84
2019-05-14T17:06:07.473Z,101759.49
2019-05-14T17:08:34.989Z,101768.31
2019-05-14T17:11:02.196Z,101759.27
2019-05-14T17:13:29.420Z,101753.82
2019-05-14T17:15:58.750Z,101758.11
2019-05-14T17:18:28.572Z,101765.80
2019-05-14T17:20:55.137Z,101762.40
2019-05-14T17:23:22.728Z,101759.75
2019-05-14T17:25:49.957Z,101752.39
2019-05-14T17:28:17.318Z,101751.89
2019-05-14T17:30:44.495Z,101761.66
2019-05-14T17:33:11.720Z,101752.36
2019-05-14T17:35:39.101Z,101757.55
2019-05-14T17:38:09.044Z,101747.59
2019-05-14T17:40:35.353Z,101745.63
2019-05-14T17:43:02.686Z,101747.07
2019-05-14T17:45:29.787Z,101756.14
2019-05-14T17:47:58.542Z,101746.33
2019-05-14T17:50:25.813Z,101748.70
2019-05-14T17:52:56.604Z,101755.94
2019-05-14T17:55:22.132Z,101766.65
2019-05-14T17:57:57.493Z,101754.39
2019-05-14T18:00:18.741Z,101765.42
2019-05-14T18:02:48.414Z,101761.03
2019-05-14T18:05:15.413Z,101764.89
2019-05-14T18:07:42.622Z,101764.60
2019-05-14T18:10:10.139Z,101758.34
2019-05-14T18:12:39.756Z,101760.23
2019-05-14T18:15:08.588Z,101762.73
2019-05-14T18:17:38.940Z,101760.58
2019-05-14T18:20:08.157Z,101762.78
2019-05-14T18:22:35.052Z,101764.34
2019-05-14T18:25:02.350Z,101763.52
2019-05-14T18:27:29.563Z,101763.91
2019-05-14T18:29:59.121Z,101762.98
2019-05-14T18:32:25.780Z,101763.61
2019-05-14T18:34:53.121Z,101766.16
2019-05-14T18:37:20.170Z,101762.75
2019-05-14T18:39:48.319Z,101765.17
2019-05-14T18:42:15.664Z,101764.77
2019-05-14T18:44:42.878Z,101767.80
2019-05-14T18:47:10.060Z,101767.98
2019-05-14T18:49:37.282Z,101774.91
2019-05-14T18:52:04.457Z,101770.64
2019-05-14T18:54:31.624Z,101770.84
2019-05-14T18:56:59.669Z,101765.05
2019-05-14T18:59:30.557Z,101769.39
2019-05-14T19:01:56.040Z,101769.14
2019-05-14T19:04:23.260Z,101767.07
2019-05-14T19:06:50.483Z,101771.89
2019-05-14T19:09:18.605Z,101780.07
2019-05-14T19:11:48.056Z,101770.25
2019-05-14T19:14:15.321Z,101771.00
2019-05-14T19:16:42.511Z,101771.24
2019-05-14T19:19:09.636Z,101780.58
2019-05-14T19:21:38.246Z,101780.92
2019-05-14T19:24:06.223Z,101784.27
2019-05-14T19:26:37.023Z,101787.60
2019-05-14T19:29:02.697Z,101786.59
2019-05-14T19:31:29.992Z,101792.17
2019-05-14T19:33:57.244Z,101799.09
2019-05-14T19:36:24.439Z,101793.69
2019-05-14T19:38:51.709Z,101792.20
2019-05-14T19:41:22.556Z,101796.08
2019-05-14T19:43:48.259Z,101795.30
2019-05-14T19:46:15.452Z,101793.02
2019-05-14T19:48:42.970Z,101795.50
2019-05-14T19:51:10.175Z,101792.67
2019-05-14T19:53:39.190Z,101794.86
2019-05-14T19:56:06.502Z,101790.13
2019-05-14T19:58:33.687Z,101809.14
2019-05-14T20:01:00.799Z,101792.84
2019-05-14T20:03:29.145Z,101801.42
2019-05-14T20:05:56.309Z,101804.66
2019-05-14T20:08:23.536Z,101796.45
2019-05-14T20:10:50.753Z,101800.77
2019-05-14T20:13:19.384Z,101800.85
2019-05-14T20:15:48.722Z,101798.42
2019-05-14T20:18:15.979Z,101796.23
2019-05-14T20:20:43.159Z,101799.16
2019-05-14T20:23:10.892Z,101799.36
2019-05-14T20:25:38.907Z,101796.42
2019-05-14T20:28:08.165Z,101790.27
2019-05-14T20:30:35.287Z,101790.05
2019-05-14T20:33:02.792Z,101793.36
2019-05-14T20:35:34.634Z,101785.61
2019-05-14T20:37:58.917Z,101785.41
2019-05-14T20:40:28.304Z,101784.80
2019-05-14T20:42:55.087Z,101784.78
2019-05-14T20:45:22.380Z,101781.55
2019-05-14T20:47:49.493Z,101785.67
2019-05-14T20:50:18.210Z,101787.03
2019-05-14T20:52:45.771Z,101782.34
2019-05-14T20:55:12.990Z,101788.30
2019-05-14T20:57:40.200Z,101783.72
2019-05-14T21:00:18.112Z,101781.31
2019-05-14T21:02:45.125Z,101782.03
2019-05-14T21:05:13.793Z,101779.77
2019-05-14T21:07:41.380Z,101781.47
2019-05-14T21:10:09.113Z,101782.15
2019-05-14T21:12:39.106Z,101783.73
2019-05-14T21:15:08.935Z,101786.59
2019-05-14T21:17:36.170Z,101778.42
2019-05-14T21:20:03.694Z,101777.67
2019-05-14T21:22:31.185Z,101781.61
2019-05-14T21:24:58.531Z,101777.09
2019-05-14T21:27:40.278Z,101779.98
2019-05-14T21:29:58.147Z,101775.23
2019-05-14T21:32:25.058Z,101774.97
2019-05-14T21:34:52.344Z,101783.38
2019-05-14T21:37:19.756Z,101771.99
2019-05-14T21:39:49.043Z,101770.56
2019-05-14T21:42:19.278Z,101772.47
2019-05-14T21:44:45.922Z,101771.16
2019-05-14T21:47:13.257Z,101773.10
2019-05-14T21:49:40.593Z,101764.36
2019-05-14T21:52:09.036Z,101766.99
2019-05-14T21:54:39.260Z,101766.77
2019-05-14T21:57:08.463Z,101772.06
2019-05-14T21:59:34.938Z,101770.49
2019-05-14T22:02:03.289Z,101769.25
2019-05-14T22:04:30.815Z,101764.17
2019-05-14T22:06:58.424Z,101764.97
2019-05-14T22:09:25.882Z,101764.73
2019-05-14T22:11:55.307Z,101764.42
2019-05-14T22:14:22.897Z,101762.34
2019-05-14T22:16:50.453Z,101767.35
2019-05-14T22:19:19.050Z,101772.78
2019-05-14T22:21:48.642Z,101766.30
2019-05-14T22:24:16.268Z,101764.43
2019-05-14T22:26:43.853Z,101770.23
2019-05-14T22:29:11.291Z,101769.16
2019-05-14T22:31:38.955Z,101771.40
2019-05-14T22:34:08.732Z,101763.59
2019-05-14T22:36:38.180Z,101771.47
2019-05-14T22:39:05.457Z,101767.76
2019-05-14T22:41:32.774Z,101760.95
2019-05-14T22:44:00.191Z,101765.05
2019-05-14T22:46:27.516Z,101766.11
2019-05-14T22:48:54.861Z,101760.03
2019-05-14T22:51:22.068Z,101754.59
2019-05-14T22:53:49.563Z,101755.63
2019-05-14T22:56:16.762Z,101755.81
2019-05-14T22:58:44.348Z,101753.70
2019-05-14T23:01:14.908Z,101752.02
2019-05-14T23:03:40.536Z,101752.94
2019-05-14T23:06:09.001Z,101745.91
2019-05-14T23:08:38.910Z,101751.19
2019-05-14T23:11:05.400Z,101750.48
2019-05-14T23:13:32.669Z,101755.95
2019-05-14T23:15:59.822Z,101752.02
2019-05-14T23:18:28.758Z,101757.81
2019-05-14T23:20:58.696Z,101753.11
2019-05-14T23:23:25.486Z,101759.67
2019-05-14T23:25:52.959Z,101756.34
2019-05-14T23:28:20.168Z,101755.16
2019-05-14T23:30:48.150Z,101747.34
2019-05-14T23:33:15.314Z,101743.52
2019-05-14T23:35:42.485Z,101749.81
2019-05-14T23:38:09.845Z,101745.94
2019-05-14T23:40:38.772Z,101751.66
2019-05-14T23:43:06.207Z,101748.39
2019-05-14T23:45:33.267Z,101740.91
2019-05-14T23:48:00.659Z,101737.63
2019-05-14T23:50:28.341Z,101731.03
2019-05-14T23:52:55.653Z,101733.55
2019-05-14T23:55:22.817Z,101728.73
2019-05-14T23:57:50.021Z,101733.65
